KNIP/NIP METAR and TAF weather

Enter ICAO airport designator
Station Type Date Time Source
KNIP METAR 2021/09/24 03:53 UTC NOAA

KNIP 240353Z 02012KT 10SM FEW250 23/16 A3000 RMK AO2 SLP153 T02330156


Station Type Date Time Source
KNIP Decoded METAR 2021/09/24 03:53 UTC NOAA

JACKSONVILLE NAVAL AIR STN, FL, United States (KNIP) 30-14N 81-40W 8M
Sep 23, 2021 - 11:53 PM EDT / 2021.09.24 0353 UTC
Wind: from the NNE (020 degrees) at 14 MPH (12 KT):0
Visibility: 10 mile(s):0
Sky conditions: mostly clear
Temperature: 73.9 F (23.3 C)
Dew Point: 60.1 F (15.6 C)
Relative Humidity: 61%
Pressure (altimeter): 30 in. Hg (1015 hPa)
ob: KNIP 240353Z 02012KT 10SM FEW250 23/16 A3000 RMK AO2 SLP153 T02330156
cycle: 4

Station Type Date Time Source
KNIP TAF 2021/09/23 23:56 UTC NOAA

TAF KNIP 2323/2423 36007KT 9999 FEW250 QNH2990INS
FM240100 02005KT 9999 SKC QNH2992INS
FM241400 03008KT 9999 FEW250 QNH2999INS T199/2411Z T28/2420Z FN20077

Example: see airport list